createdAt,value
2019-03-20T00:00:57.077Z,99825.21
2019-03-20T00:03:25.301Z,99832.39
2019-03-20T00:05:53.844Z,99831.51
2019-03-20T00:08:22.320Z,99829.28
2019-03-20T00:10:50.542Z,99830.63
2019-03-20T00:13:18.766Z,99830.63
2019-03-20T00:15:46.967Z,99823.45
2019-03-20T00:18:15.528Z,99831.97
2019-03-20T00:20:43.761Z,99825.25
2019-03-20T00:23:12.263Z,99823.02
2019-03-20T00:25:40.477Z,99823.91
2019-03-20T00:28:09.040Z,99818.53
2019-03-20T00:30:37.239Z,99819.88
2019-03-20T00:33:05.448Z,99820.30
2019-03-20T00:35:33.646Z,99814.50
2019-03-20T00:38:01.868Z,99815.42
2019-03-20T00:40:30.145Z,99815.42
2019-03-20T00:42:58.699Z,99814.97
2019-03-20T00:45:27.177Z,99818.11
2019-03-20T00:47:55.669Z,99818.11
2019-03-20T00:50:23.867Z,99822.14
2019-03-20T00:52:52.081Z,99827.56
2019-03-20T00:55:20.941Z,99814.59
2019-03-20T00:57:49.149Z,99822.64
2019-03-20T01:00:24.069Z,99825.34
2019-03-20T01:02:52.291Z,99821.30
2019-03-20T01:05:21.488Z,99814.17
2019-03-20T01:07:49.697Z,99818.62
2019-03-20T01:10:24.432Z,99818.20
2019-03-20T01:12:52.662Z,99819.08
2019-03-20T01:15:20.863Z,99819.08
2019-03-20T01:17:49.148Z,99814.20
2019-03-20T01:20:24.298Z,99818.20
2019-03-20T01:22:52.513Z,99822.23
2019-03-20T01:25:20.719Z,99816.44
2019-03-20T01:27:48.991Z,99824.03
2019-03-20T01:30:37.143Z,99817.36
2019-03-20T01:33:10.705Z,99808.83
2019-03-20T01:35:38.915Z,99820.00
2019-03-20T01:38:07.878Z,99820.05
2019-03-20T01:40:36.066Z,99819.12
2019-03-20T01:43:04.674Z,99816.85
2019-03-20T01:45:32.881Z,99828.06
2019-03-20T01:48:01.095Z,99828.06
2019-03-20T01:50:29.298Z,99827.14
2019-03-20T01:52:57.840Z,99825.84
2019-03-20T01:55:26.038Z,99825.84
2019-03-20T01:57:54.599Z,99823.15
2019-03-20T02:00:22.811Z,99823.15
2019-03-20T02:02:51.018Z,99824.49
2019-03-20T02:05:19.231Z,99825.87
2019-03-20T02:07:47.690Z,99828.52
2019-03-20T02:10:17.278Z,99822.27
2019-03-20T02:12:45.480Z,99822.23
2019-03-20T02:15:17.411Z,99825.80
2019-03-20T02:17:45.328Z,99814.17
2019-03-20T02:20:15.711Z,99821.30
2019-03-20T02:22:43.912Z,99825.80
2019-03-20T02:25:12.660Z,99832.09
2019-03-20T02:27:40.860Z,99825.84
2019-03-20T02:30:19.813Z,99819.16
2019-03-20T02:32:48.040Z,99824.08
2019-03-20T02:35:16.254Z,99828.11
2019-03-20T02:37:44.438Z,99825.41
2019-03-20T02:40:13.688Z,99820.05
2019-03-20T02:42:41.895Z,99818.70
2019-03-20T02:45:15.444Z,99828.11
2019-03-20T02:47:43.650Z,99820.97
2019-03-20T02:50:13.075Z,99821.84
2019-03-20T02:52:41.304Z,99827.64
2019-03-20T02:55:10.435Z,99836.16
2019-03-20T02:57:38.641Z,99834.82
2019-03-20T03:00:15.706Z,99833.94
2019-03-20T03:02:43.893Z,99835.28
2019-03-20T03:05:12.437Z,99841.53
2019-03-20T03:07:40.933Z,99842.00
2019-03-20T03:10:14.680Z,99841.58
2019-03-20T03:12:43.214Z,99833.98
2019-03-20T03:15:13.452Z,99838.43
2019-03-20T03:17:41.744Z,99837.12
2019-03-20T03:20:15.380Z,99839.35
2019-03-20T03:22:43.711Z,99829.06
2019-03-20T03:25:12.933Z,99825.50
2019-03-20T03:27:41.142Z,99825.92
2019-03-20T03:30:14.030Z,99828.19
2019-03-20T03:32:42.254Z,99828.61
2019-03-20T03:35:15.973Z,99831.75
2019-03-20T03:37:40.376Z,99829.53
2019-03-20T03:40:11.663Z,99836.20
2019-03-20T03:42:40.167Z,99825.92
2019-03-20T03:45:11.924Z,99829.95
2019-03-20T03:47:41.730Z,99833.98
2019-03-20T03:50:10.832Z,99838.94
2019-03-20T03:52:39.292Z,99833.52
2019-03-20T03:55:11.380Z,99832.17
2019-03-20T03:57:39.739Z,99833.09
2019-03-20T04:00:18.729Z,99830.88
2019-03-20T04:02:46.934Z,99836.67
2019-03-20T04:05:15.154Z,99834.91
2019-03-20T04:07:43.341Z,99839.81
2019-03-20T04:10:12.890Z,99838.02
2019-03-20T04:12:41.081Z,99832.64
2019-03-20T04:15:16.876Z,99835.37
2019-03-20T04:17:45.078Z,99837.59
2019-03-20T04:20:18.203Z,99828.66
2019-03-20T04:22:46.400Z,99842.55
2019-03-20T04:25:14.615Z,99836.25
2019-03-20T04:27:42.808Z,99843.85
2019-03-20T04:30:14.021Z,99844.73
2019-03-20T04:32:42.531Z,99842.09
2019-03-20T04:35:10.855Z,99840.74
2019-03-20T04:37:39.078Z,99841.63
2019-03-20T04:40:12.399Z,99837.13
2019-03-20T04:42:40.599Z,99831.34
2019-03-20T04:45:15.581Z,99837.63
2019-03-20T04:47:44.315Z,99836.33
2019-03-20T04:50:13.566Z,99835.88
2019-03-20T04:52:41.814Z,99837.63
2019-03-20T04:55:10.010Z,99832.30
2019-03-20T04:57:38.169Z,99839.44
2019-03-20T05:00:12.184Z,99844.35
2019-03-20T05:02:40.390Z,99846.20
2019-03-20T05:05:08.589Z,99843.55
2019-03-20T05:07:37.127Z,99851.15
2019-03-20T05:10:08.884Z,99855.94
2019-03-20T05:12:37.082Z,99850.40
2019-03-20T05:15:07.761Z,99852.20
2019-03-20T05:17:35.959Z,99856.73
2019-03-20T05:20:06.466Z,99858.50
2019-03-20T05:22:34.673Z,99850.52
2019-03-20T05:25:02.871Z,99848.72
2019-03-20T05:27:31.073Z,99860.77
2019-03-20T05:29:59.289Z,99861.10
2019-03-20T05:32:27.497Z,99861.10
2019-03-20T05:34:55.951Z,99864.63
2019-03-20T05:37:24.154Z,99864.55
2019-03-20T05:39:52.359Z,99876.55
2019-03-20T05:42:20.570Z,99881.47
2019-03-20T05:44:48.795Z,99879.66
2019-03-20T05:47:16.982Z,99878.70
2019-03-20T05:49:45.424Z,99880.46
2019-03-20T05:52:13.626Z,99885.00
2019-03-20T05:54:41.826Z,99888.61
2019-03-20T05:57:12.433Z,99893.56
2019-03-20T05:59:39.954Z,99895.83
2019-03-20T06:02:08.157Z,99894.48
2019-03-20T06:04:36.359Z,99895.41
2019-03-20T06:07:04.568Z,99902.13
2019-03-20T06:09:32.861Z,99905.16
2019-03-20T06:12:01.417Z,99904.73
2019-03-20T06:14:30.103Z,99909.19
2019-03-20T06:16:58.582Z,99912.71
2019-03-20T06:19:26.784Z,99906.45
2019-03-20T06:21:54.994Z,99911.41
2019-03-20T06:24:23.515Z,99914.98
2019-03-20T06:26:51.724Z,99918.09
2019-03-20T06:29:20.324Z,99924.34
2019-03-20T06:31:48.498Z,99924.18
2019-03-20T06:34:17.041Z,99922.30
2019-03-20T06:36:45.254Z,99921.28
2019-03-20T06:39:13.460Z,99915.44
2019-03-20T06:41:41.688Z,99920.39
2019-03-20T06:44:09.895Z,99924.01
2019-03-20T06:46:38.108Z,99918.96
2019-03-20T06:49:07.975Z,99924.71
2019-03-20T06:51:36.301Z,99924.13
2019-03-20T06:54:04.797Z,99925.05
2019-03-20T06:56:33.017Z,99919.71
2019-03-20T06:59:24.129Z,99923.33
2019-03-20T07:01:52.664Z,99925.13
2019-03-20T07:04:24.377Z,99925.59
2019-03-20T07:06:58.576Z,99931.85
2019-03-20T07:09:57.832Z,99931.85
2019-03-20T07:12:26.051Z,99935.89
2019-03-20T07:14:54.304Z,99943.48
2019-03-20T07:17:22.868Z,99940.80
2019-03-20T07:19:51.392Z,99943.02
2019-03-20T07:22:19.611Z,99949.70
2019-03-20T07:24:47.814Z,99947.48
2019-03-20T07:27:16.026Z,99946.14
2019-03-20T07:29:44.233Z,99944.79
2019-03-20T07:32:12.441Z,99947.94
2019-03-20T07:34:41.003Z,99949.75
2019-03-20T07:37:09.595Z,99948.32
2019-03-20T07:39:38.066Z,99951.39
2019-03-20T07:42:06.652Z,99957.15
2019-03-20T07:44:35.129Z,99961.17
2019-03-20T07:47:03.336Z,99970.96
2019-03-20T07:49:31.540Z,99971.80
2019-03-20T07:51:59.748Z,99966.34
2019-03-20T07:54:28.337Z,99973.90
2019-03-20T07:56:56.547Z,99972.05
2019-03-20T07:59:24.832Z,99975.12
2019-03-20T08:01:53.090Z,99976.42
2019-03-20T08:04:21.262Z,99984.41
2019-03-20T08:06:49.487Z,99992.44
2019-03-20T08:09:17.737Z,99992.34
2019-03-20T08:11:46.096Z,99985.53
2019-03-20T08:14:14.323Z,99992.59
2019-03-20T08:16:42.531Z,99993.00
2019-03-20T08:19:10.753Z,100003.63
2019-03-20T08:21:39.271Z,99995.94
2019-03-20T08:24:07.861Z,100004.44
2019-03-20T08:26:36.333Z,100007.91
2019-03-20T08:29:04.813Z,100013.16
2019-03-20T08:31:33.301Z,100015.25
2019-03-20T08:34:01.881Z,100016.03
2019-03-20T08:36:30.088Z,100015.90
2019-03-20T08:38:58.310Z,100016.27
2019-03-20T08:41:26.532Z,100019.70
2019-03-20T08:43:54.751Z,100015.05
2019-03-20T08:46:22.956Z,100021.59
2019-03-20T08:48:51.437Z,100035.75
2019-03-20T08:51:19.637Z,100032.91
2019-03-20T08:53:48.188Z,100034.06
2019-03-20T08:56:16.398Z,100030.86
2019-03-20T08:58:44.612Z,100039.30
2019-03-20T09:01:12.817Z,100029.68
2019-03-20T09:03:41.036Z,100027.66
2019-03-20T09:06:09.244Z,100022.55
2019-03-20T09:08:37.719Z,100019.57
2019-03-20T09:11:05.920Z,100023.87
2019-03-20T09:13:34.391Z,100023.15
2019-03-20T09:16:02.600Z,100018.94
2019-03-20T09:18:31.151Z,100010.63
2019-03-20T09:20:59.358Z,100009.13
2019-03-20T09:23:27.580Z,100003.10
2019-03-20T09:25:56.030Z,100006.45
2019-03-20T09:28:24.564Z,100002.70
2019-03-20T09:30:52.766Z,100003.36
2019-03-20T09:33:20.996Z,100010.75
2019-03-20T09:35:49.194Z,100011.05
2019-03-20T09:38:17.416Z,100003.75
2019-03-20T09:40:45.624Z,100004.98
2019-03-20T09:43:14.222Z,100009.28
2019-03-20T09:45:42.704Z,100004.69
2019-03-20T09:48:10.909Z,100002.59
2019-03-20T09:50:39.121Z,100015.38
2019-03-20T09:53:07.370Z,100010.19
2019-03-20T09:55:35.904Z,100011.31
2019-03-20T09:58:11.420Z,100008.89
2019-03-20T10:00:34.371Z,100013.64
2019-03-20T10:03:02.896Z,100005.81
2019-03-20T10:05:31.092Z,100010.10
2019-03-20T10:07:59.299Z,100008.16
2019-03-20T10:10:31.704Z,100002.59
2019-03-20T10:13:00.202Z,100002.34
2019-03-20T10:15:29.059Z,100000.91
2019-03-20T10:17:57.562Z,99995.73
2019-03-20T10:20:25.780Z,100001.43
2019-03-20T10:22:53.986Z,99997.77
2019-03-20T10:25:22.502Z,99996.16
2019-03-20T10:27:52.017Z,99997.92
2019-03-20T10:30:29.867Z,99993.72
2019-03-20T10:32:58.446Z,99996.77
2019-03-20T10:35:26.959Z,100002.11
2019-03-20T10:37:55.168Z,100002.52
2019-03-20T10:40:24.132Z,99993.34
2019-03-20T10:42:52.602Z,99994.13
2019-03-20T10:45:21.191Z,100002.13
2019-03-20T10:47:52.752Z,100007.41
2019-03-20T10:50:24.051Z,100000.52
2019-03-20T10:52:52.282Z,100000.36
2019-03-20T10:55:20.472Z,100005.11
2019-03-20T10:57:48.750Z,100000.02
2019-03-20T11:00:22.542Z,99997.97
2019-03-20T11:02:50.722Z,100006.73
2019-03-20T11:05:19.584Z,100009.38
2019-03-20T11:07:47.788Z,100006.13
2019-03-20T11:10:19.262Z,100016.77
2019-03-20T11:12:47.508Z,100011.13
2019-03-20T11:15:17.472Z,100028.92
2019-03-20T11:17:45.662Z,100021.22
2019-03-20T11:20:17.942Z,100014.82
2019-03-20T11:22:46.153Z,100025.05
2019-03-20T11:25:21.926Z,100019.44
2019-03-20T11:27:50.454Z,100025.70
2019-03-20T11:30:27.119Z,100027.80
2019-03-20T11:32:55.324Z,100033.14
2019-03-20T11:35:23.890Z,100040.19
2019-03-20T11:37:52.085Z,100035.95
2019-03-20T11:40:31.942Z,100034.33
2019-03-20T11:43:00.153Z,100046.35
2019-03-20T11:45:28.352Z,100042.80
2019-03-20T11:47:56.555Z,100037.85
2019-03-20T11:50:27.663Z,100036.30
2019-03-20T11:52:56.270Z,100037.84
2019-03-20T11:55:24.484Z,100029.48
2019-03-20T11:57:52.677Z,100032.02
2019-03-20T12:00:22.243Z,100041.69
2019-03-20T12:02:50.440Z,100039.59
2019-03-20T12:05:18.665Z,100036.54
2019-03-20T12:07:46.864Z,100035.82
2019-03-20T12:10:31.466Z,100036.02
2019-03-20T12:12:59.659Z,100041.59
2019-03-20T12:15:27.864Z,100038.60
2019-03-20T12:17:56.074Z,100043.26
2019-03-20T12:20:24.913Z,100043.83
2019-03-20T12:22:53.115Z,100040.84
2019-03-20T12:25:32.780Z,100037.81
2019-03-20T12:28:01.303Z,100031.62
2019-03-20T12:30:33.675Z,100032.63
2019-03-20T12:33:02.192Z,100038.16
2019-03-20T12:35:41.317Z,100040.58
2019-03-20T12:38:14.640Z,100042.02
2019-03-20T12:40:39.450Z,100035.39
2019-03-20T12:43:07.962Z,100035.98
2019-03-20T12:45:39.398Z,100036.98
2019-03-20T12:48:09.082Z,100040.66
2019-03-20T12:50:37.318Z,100039.91
2019-03-20T12:53:07.963Z,100038.14
2019-03-20T12:55:36.173Z,100048.14
2019-03-20T12:58:04.679Z,100041.50
2019-03-20T13:00:32.879Z,100049.69
2019-03-20T13:03:01.084Z,100052.05
2019-03-20T13:05:29.284Z,100053.45
2019-03-20T13:08:05.340Z,100055.46
2019-03-20T13:10:28.305Z,100058.19
2019-03-20T13:12:56.798Z,100063.30
2019-03-20T13:15:25.763Z,100067.53
2019-03-20T13:17:55.005Z,100066.67
2019-03-20T13:20:23.198Z,100063.63
2019-03-20T13:22:57.614Z,100064.62
2019-03-20T13:25:25.819Z,100072.38
2019-03-20T13:27:54.324Z,100063.87
2019-03-20T13:30:28.849Z,100056.73
2019-03-20T13:32:57.067Z,100055.91
2019-03-20T13:35:25.271Z,100051.03
2019-03-20T13:37:53.488Z,100059.72
2019-03-20T13:40:21.687Z,100058.91
2019-03-20T13:42:49.908Z,100054.93
2019-03-20T13:45:26.081Z,100052.28
2019-03-20T13:47:54.297Z,100053.69
2019-03-20T13:50:22.940Z,100058.27
2019-03-20T13:52:51.163Z,100057.91
2019-03-20T13:55:19.368Z,100057.09
2019-03-20T13:57:47.871Z,100058.46
2019-03-20T14:00:21.046Z,100061.22
2019-03-20T14:02:49.627Z,100059.05
2019-03-20T14:05:17.867Z,100051.52
2019-03-20T14:07:46.079Z,100059.16
2019-03-20T14:10:25.131Z,100054.22
2019-03-20T14:12:48.789Z,100060.56
2019-03-20T14:15:18.035Z,100064.22
2019-03-20T14:17:46.584Z,100057.94
2019-03-20T14:20:20.624Z,100053.48
2019-03-20T14:22:48.839Z,100057.53
2019-03-20T14:25:17.047Z,100057.11
2019-03-20T14:27:45.251Z,100053.59
2019-03-20T14:30:17.069Z,100054.52
2019-03-20T14:32:44.907Z,100054.52
2019-03-20T14:35:13.083Z,100055.00
2019-03-20T14:37:41.543Z,100046.95
2019-03-20T14:40:18.752Z,100043.84
2019-03-20T14:42:46.956Z,100051.52
2019-03-20T14:45:16.007Z,100052.88
2019-03-20T14:47:44.391Z,100047.08
2019-03-20T14:50:14.939Z,100049.31
2019-03-20T14:52:43.424Z,100044.44
2019-03-20T14:55:13.623Z,100040.44
2019-03-20T14:57:42.131Z,100040.03
2019-03-20T15:00:24.746Z,100037.39
2019-03-20T15:02:52.962Z,100031.52
2019-03-20T15:05:21.169Z,100031.57
2019-03-20T15:07:49.401Z,100025.76
2019-03-20T15:10:28.155Z,100028.05
2019-03-20T15:12:56.689Z,100025.34
2019-03-20T15:15:43.523Z,100030.33
2019-03-20T15:18:11.735Z,100027.63
2019-03-20T15:20:39.942Z,100020.47
2019-03-20T15:23:08.159Z,100018.67
2019-03-20T15:25:36.364Z,100022.31
2019-03-20T15:28:04.571Z,100021.89
2019-03-20T15:30:32.778Z,100018.27
2019-03-20T15:33:01.009Z,100014.73
2019-03-20T15:35:29.216Z,100018.38
2019-03-20T15:37:57.423Z,100019.31
2019-03-20T15:40:28.593Z,100010.80
2019-03-20T15:42:56.792Z,100006.34
2019-03-20T15:45:25.003Z,100013.61
2019-03-20T15:47:53.559Z,100010.02
2019-03-20T15:50:27.088Z,100012.31
2019-03-20T15:52:55.315Z,100009.63
2019-03-20T15:55:28.853Z,100003.37
2019-03-20T15:57:57.485Z,100006.54
2019-03-20T16:00:25.695Z,100003.48
2019-03-20T16:03:11.521Z,100003.07
2019-03-20T16:05:39.718Z,100006.23
2019-03-20T16:08:08.201Z,100009.45
2019-03-20T16:10:36.403Z,100013.56
2019-03-20T16:13:04.996Z,100008.18
2019-03-20T16:15:33.230Z,100014.52
2019-03-20T16:18:01.431Z,100015.92
2019-03-20T16:20:29.988Z,100008.81
2019-03-20T16:22:58.246Z,100017.84
2019-03-20T16:25:26.400Z,100019.23
2019-03-20T16:27:54.598Z,100019.76
2019-03-20T16:30:28.983Z,100024.27
2019-03-20T16:32:57.510Z,100023.41
2019-03-20T16:35:25.733Z,100029.27
2019-03-20T16:37:53.935Z,100035.19
2019-03-20T16:40:30.386Z,100035.24
2019-03-20T16:42:58.605Z,100028.97
2019-03-20T16:45:32.999Z,100042.97
2019-03-20T16:48:01.199Z,100041.73
2019-03-20T16:50:29.688Z,100041.31
2019-03-20T16:52:58.158Z,100036.34
2019-03-20T16:55:26.362Z,100033.29
2019-03-20T16:57:54.558Z,100029.66
2019-03-20T17:00:25.447Z,100036.81
2019-03-20T17:02:54.023Z,100041.31
2019-03-20T17:05:22.915Z,100039.09
2019-03-20T17:07:51.127Z,100045.53
2019-03-20T17:10:38.786Z,100043.34
2019-03-20T17:13:07.307Z,100046.00
2019-03-20T17:15:37.817Z,100043.77
2019-03-20T17:18:06.755Z,100037.02
2019-03-20T17:20:34.964Z,100042.73
2019-03-20T17:23:03.179Z,100037.80
2019-03-20T17:25:31.392Z,100045.16
2019-03-20T17:27:59.594Z,100039.88
2019-03-20T17:30:39.667Z,100042.59
2019-03-20T17:33:08.161Z,100033.15
2019-03-20T17:35:36.351Z,100036.78
2019-03-20T17:38:05.132Z,100038.55
2019-03-20T17:40:33.346Z,100045.75
2019-03-20T17:43:01.552Z,100046.22
2019-03-20T17:45:29.802Z,100043.52
2019-03-20T17:47:57.991Z,100045.85
2019-03-20T17:50:32.862Z,100045.85
2019-03-20T17:53:01.107Z,100045.90
2019-03-20T17:55:29.311Z,100044.50
2019-03-20T17:57:57.884Z,100044.81
2019-03-20T18:00:33.958Z,100044.40
2019-03-20T18:03:02.185Z,100049.02
2019-03-20T18:05:30.359Z,100054.41
2019-03-20T18:07:58.867Z,100047.72
2019-03-20T18:10:27.087Z,100053.16
2019-03-20T18:12:55.299Z,100062.91
2019-03-20T18:15:23.521Z,100067.33
2019-03-20T18:17:51.723Z,100067.89
2019-03-20T18:20:20.676Z,100074.68
2019-03-20T18:22:48.882Z,100085.15
2019-03-20T18:25:17.104Z,100082.47
2019-03-20T18:27:45.307Z,100088.33
2019-03-20T18:30:30.908Z,100095.16
2019-03-20T18:32:59.102Z,100096.14
2019-03-20T18:35:27.322Z,100094.84
2019-03-20T18:37:55.531Z,100094.42
2019-03-20T18:40:26.223Z,100100.55
2019-03-20T18:42:54.425Z,100102.37
2019-03-20T18:45:25.999Z,100102.98
2019-03-20T18:47:54.530Z,100107.97
2019-03-20T18:50:23.280Z,100114.75
2019-03-20T18:52:51.719Z,100111.69
2019-03-20T18:55:20.198Z,100116.61
2019-03-20T18:57:49.249Z,100116.98
2019-03-20T19:00:23.101Z,100113.88
2019-03-20T19:02:52.948Z,100112.98
2019-03-20T19:05:26.644Z,100118.89
2019-03-20T19:07:54.849Z,100115.78
2019-03-20T19:10:23.345Z,100118.98
2019-03-20T19:12:51.938Z,100111.84
2019-03-20T19:15:20.138Z,100114.55
2019-03-20T19:17:48.348Z,100119.06
2019-03-20T19:20:16.541Z,100117.34
2019-03-20T19:22:44.866Z,100118.69
2019-03-20T19:25:17.611Z,100114.64
2019-03-20T19:27:45.827Z,100119.20
2019-03-20T19:30:25.069Z,100112.09
2019-03-20T19:32:53.277Z,100119.30
2019-03-20T19:35:21.905Z,100114.87
2019-03-20T19:37:51.358Z,100113.53
2019-03-20T19:40:21.035Z,100115.81
2019-03-20T19:42:49.311Z,100118.03
2019-03-20T19:45:18.359Z,100115.81
2019-03-20T19:47:46.708Z,100118.98
2019-03-20T19:50:19.126Z,100118.09
2019-03-20T19:52:47.335Z,100116.84
2019-03-20T19:55:17.421Z,100115.53
2019-03-20T19:57:47.340Z,100121.85
2019-03-20T20:00:23.924Z,100116.09
2019-03-20T20:02:52.163Z,100114.29
2019-03-20T20:05:20.652Z,100113.41
2019-03-20T20:07:48.913Z,100102.67
2019-03-20T20:10:17.953Z,100104.02
2019-03-20T20:12:47.770Z,100095.98
2019-03-20T20:15:33.110Z,100091.90
2019-03-20T20:18:01.374Z,100092.83
2019-03-20T20:20:35.259Z,100095.10
2019-03-20T20:23:04.520Z,100095.52
2019-03-20T20:25:32.971Z,100099.14
2019-03-20T20:28:01.449Z,100101.37
2019-03-20T20:30:30.527Z,100101.42
2019-03-20T20:32:58.749Z,100104.20
2019-03-20T20:35:26.996Z,100098.40
2019-03-20T20:37:55.465Z,100105.18
2019-03-20T20:40:25.434Z,100111.45
2019-03-20T20:42:53.635Z,100107.88
2019-03-20T20:45:23.418Z,100106.12
2019-03-20T20:47:51.954Z,100106.62
2019-03-20T20:50:20.433Z,100109.78
2019-03-20T20:52:48.908Z,100107.13
2019-03-20T20:55:21.394Z,100108.48
2019-03-20T20:57:49.609Z,100116.56
2019-03-20T21:00:24.737Z,100108.61
2019-03-20T21:02:52.956Z,100110.84
2019-03-20T21:05:21.165Z,100107.17
2019-03-20T21:07:49.376Z,100104.06
2019-03-20T21:10:21.900Z,100103.28
2019-03-20T21:12:56.265Z,100106.02
2019-03-20T21:15:32.520Z,100103.41
2019-03-20T21:18:12.820Z,100100.76
2019-03-20T21:20:41.026Z,100096.81
2019-03-20T21:23:38.446Z,100095.94
2019-03-20T21:26:07.718Z,100104.52
2019-03-20T21:29:02.053Z,100110.79
2019-03-20T21:31:33.525Z,100109.02
2019-03-20T21:34:16.791Z,100105.91
2019-03-20T21:36:56.834Z,100109.57
2019-03-20T21:39:25.363Z,100110.95
2019-03-20T21:42:32.272Z,100111.47
2019-03-20T21:45:12.318Z,100107.44
2019-03-20T21:47:40.632Z,100111.94
2019-03-20T21:50:14.903Z,100116.48
2019-03-20T21:52:43.496Z,100115.64
2019-03-20T21:55:23.786Z,100120.60
2019-03-20T21:58:01.003Z,100130.02
2019-03-20T22:00:58.214Z,100131.42
2019-03-20T22:03:26.456Z,100120.23
2019-03-20T22:06:03.744Z,100127.88
2019-03-20T22:08:32.227Z,100130.16
2019-03-20T22:11:20.458Z,100129.32
2019-03-20T22:13:52.076Z,100130.20
2019-03-20T22:16:42.894Z,100124.82
2019-03-20T22:19:41.410Z,100138.73
2019-03-20T22:22:40.425Z,100139.20
2019-03-20T22:25:23.559Z,100138.32
2019-03-20T22:28:04.089Z,100138.36
2019-03-20T22:30:32.304Z,100129.86
2019-03-20T22:33:23.337Z,100133.52
2019-03-20T22:35:51.953Z,100137.14
2019-03-20T22:38:23.451Z,100138.48
2019-03-20T22:41:12.522Z,100138.48
2019-03-20T22:43:46.788Z,100138.95
2019-03-20T22:46:30.285Z,100142.10
2019-03-20T22:49:13.608Z,100136.34
2019-03-20T22:51:54.262Z,100139.07
2019-03-20T22:54:49.352Z,100149.45
2019-03-20T22:57:27.998Z,100149.41
2019-03-20T22:59:56.200Z,100152.56
2019-03-20T23:02:36.677Z,100153.03
2019-03-20T23:05:08.432Z,100152.18
2019-03-20T23:07:36.943Z,100150.84
2019-03-20T23:10:11.185Z,100144.15
2019-03-20T23:12:39.383Z,100148.64
2019-03-20T23:15:18.535Z,100149.99
2019-03-20T23:17:46.741Z,100151.80
2019-03-20T23:20:21.192Z,100152.27
2019-03-20T23:22:49.563Z,100149.16
2019-03-20T23:25:17.766Z,100153.23
2019-03-20T23:27:45.974Z,100156.84
2019-03-20T23:30:17.475Z,100163.11
2019-03-20T23:32:45.694Z,100162.22
2019-03-20T23:35:13.902Z,100164.48
2019-03-20T23:37:42.110Z,100156.88
2019-03-20T23:40:13.154Z,100158.69
2019-03-20T23:42:42.490Z,100160.95
2019-03-20T23:45:16.448Z,100158.30
2019-03-20T23:47:47.912Z,100160.11
2019-03-20T23:50:16.130Z,100165.03
2019-03-20T23:52:44.334Z,100163.69
2019-03-20T23:55:13.383Z,100165.45
2019-03-20T23:57:41.593Z,100161.03
